Weather at Mahanewo Airport

Public forecast

Using degrees Celsius for public forecast. Weather courtesy of forecast.io.

Closest aviation weather report (METAR) to Mahanewo Airport

Closest report is Woomera Airfield, 39.7 nm (73.5 km) NNE. Retrieved 2021/06/15 15:30 UTC (0 seconds ago):

YPWR 151530Z AUTO 32010KT 9999 // NCD 06/03 Q1012 RF000/0008

Closest aviation forecast (TAF) to Mahanewo Airport

Closest forecast is Woomera Airfield, 39.7 nm (73.5 km) NNE. Retrieved 2021/06/15 12:00 UTC (3 hours ago):

TAF YPWR 151112Z 1512/1606 31012KT CAVOK FM160000 30018KT 9999 SCT030 FM160300 26016G29KT 9999 SCT030